TRA87M LDDU-EHRD
Flight info
| Callsign | TRA87M |
|---|---|
| Flight time | N/A |
| Altitude | 40000 |
| Route | AMUGO DCT UVODI DCT SPL DCT PEVAL DCT MOBDO DCT SOTOV DCT KPT L608 LIRSU DCT SOGRI L608 BUB Y28 HELEN |
| Aircraft | B738/M-SDE2E3FGHIJ1RWXYZ/LB1 |
Departure
| Time | N/A |
|---|---|
| Airport | Dubrovnik Ruđer Bošković Airport (LDDU) |
Arrival
| Time | 2026-04-29 13:45 |
|---|---|
| Airport | Rotterdam The Hague Airport (EHRD) |
| Time | Latitude | Longitude | Altitude | Speed | Heading |
|---|---|---|---|---|---|
| 2026-04-29 13:14 | 50.40243 | 5.97155 | 35997 ft | 417 kts | 307° |
| 2026-04-29 13:14 | 50.41896 | 5.93422 | 35548 ft | 415 kts | 307° |
| 2026-04-29 13:15 | 50.43535 | 5.89716 | 35127 ft | 413 kts | 307° |
| 2026-04-29 13:15 | 50.45163 | 5.86029 | 34714 ft | 409 kts | 307° |
| 2026-04-29 13:15 | 50.46777 | 5.82371 | 34294 ft | 406 kts | 308° |
| 2026-04-29 13:15 | 50.48380 | 5.78730 | 33894 ft | 404 kts | 308° |
| 2026-04-29 13:16 | 50.49973 | 5.75110 | 33482 ft | 403 kts | 308° |
| 2026-04-29 13:16 | 50.51560 | 5.71500 | 33074 ft | 401 kts | 309° |
| 2026-04-29 13:16 | 50.53139 | 5.67903 | 32669 ft | 399 kts | 309° |
| 2026-04-29 13:16 | 50.54712 | 5.64317 | 32265 ft | 398 kts | 309° |
| 2026-04-29 13:17 | 50.56274 | 5.60745 | 31864 ft | 396 kts | 309° |
| 2026-04-29 13:17 | 50.57830 | 5.57180 | 31465 ft | 394 kts | 310° |
| 2026-04-29 13:17 | 50.59378 | 5.53631 | 31084 ft | 393 kts | 310° |
| 2026-04-29 13:17 | 50.60921 | 5.50090 | 30685 ft | 392 kts | 310° |
| 2026-04-29 13:18 | 50.62461 | 5.46551 | 30292 ft | 391 kts | 311° |
| 2026-04-29 13:18 | 50.63995 | 5.43023 | 29896 ft | 390 kts | 311° |
| 2026-04-29 13:18 | 50.65524 | 5.39501 | 29498 ft | 389 kts | 311° |
| 2026-04-29 13:18 | 50.67044 | 5.35990 | 29093 ft | 387 kts | 310° |
| 2026-04-29 13:19 | 50.68556 | 5.32496 | 28695 ft | 385 kts | 310° |
| 2026-04-29 13:19 | 50.70063 | 5.29009 | 28297 ft | 383 kts | 310° |
| 2026-04-29 13:19 | 50.71560 | 5.25539 | 27907 ft | 382 kts | 310° |
| 2026-04-29 13:19 | 50.73048 | 5.22089 | 27512 ft | 380 kts | 310° |
| 2026-04-29 13:20 | 50.74510 | 5.18695 | 27127 ft | 378 kts | 309° |
| 2026-04-29 13:20 | 50.75983 | 5.15271 | 26740 ft | 376 kts | 309° |
| 2026-04-29 13:20 | 50.77446 | 5.11864 | 26354 ft | 373 kts | 309° |
| 2026-04-29 13:20 | 50.78898 | 5.08477 | 25968 ft | 371 kts | 309° |
| 2026-04-29 13:21 | 50.80287 | 5.05047 | 25582 ft | 371 kts | 302° |
| 2026-04-29 13:21 | 50.81305 | 5.01283 | 25207 ft | 374 kts | 291° |
| 2026-04-29 13:21 | 50.82064 | 4.97360 | 24837 ft | 372 kts | 290° |
| 2026-04-29 13:21 | 50.82784 | 4.93439 | 24465 ft | 370 kts | 289° |
| 2026-04-29 13:22 | 50.83497 | 4.89538 | 24094 ft | 368 kts | 289° |
| 2026-04-29 13:22 | 50.84214 | 4.85660 | 23724 ft | 366 kts | 290° |
| 2026-04-29 13:22 | 50.84933 | 4.81808 | 23351 ft | 364 kts | 290° |
| 2026-04-29 13:22 | 50.85653 | 4.77982 | 22981 ft | 362 kts | 290° |
| 2026-04-29 13:23 | 50.86370 | 4.74183 | 22617 ft | 359 kts | 290° |
| 2026-04-29 13:23 | 50.87082 | 4.70407 | 22252 ft | 357 kts | 290° |
| 2026-04-29 13:23 | 50.87792 | 4.66646 | 21895 ft | 355 kts | 290° |
| 2026-04-29 13:23 | 50.88495 | 4.62908 | 21528 ft | 353 kts | 290° |
| 2026-04-29 13:24 | 50.89192 | 4.59193 | 21170 ft | 351 kts | 290° |
| 2026-04-29 13:24 | 50.89888 | 4.55508 | 20815 ft | 348 kts | 291° |
| 2026-04-29 13:24 | 50.90831 | 4.52018 | 20469 ft | 341 kts | 303° |
| 2026-04-29 13:24 | 50.92046 | 4.48821 | 20135 ft | 337 kts | 306° |
| 2026-04-29 13:25 | 50.93286 | 4.45681 | 19781 ft | 335 kts | 306° |
| 2026-04-29 13:25 | 50.95747 | 4.39454 | 19083 ft | 331 kts | 306° |
| 2026-04-29 13:25 | 50.96958 | 4.36359 | 18736 ft | 329 kts | 305° |
| 2026-04-29 13:26 | 50.98155 | 4.33282 | 18390 ft | 327 kts | 305° |
| 2026-04-29 13:26 | 50.99343 | 4.30215 | 18047 ft | 325 kts | 305° |
| 2026-04-29 13:26 | 51.00519 | 4.27169 | 17719 ft | 323 kts | 305° |
| 2026-04-29 13:26 | 51.01689 | 4.24135 | 17374 ft | 321 kts | 305° |
| 2026-04-29 13:27 | 51.02851 | 4.21115 | 17039 ft | 319 kts | 304° |
| 2026-04-29 13:27 | 51.04004 | 4.18115 | 16696 ft | 317 kts | 304° |
| 2026-04-29 13:27 | 51.05149 | 4.15132 | 16370 ft | 315 kts | 304° |
| 2026-04-29 13:27 | 51.06289 | 4.12158 | 16028 ft | 314 kts | 304° |
| 2026-04-29 13:28 | 51.07420 | 4.09207 | 15706 ft | 312 kts | 304° |
| 2026-04-29 13:28 | 51.08544 | 4.06271 | 15375 ft | 310 kts | 304° |
| 2026-04-29 13:28 | 51.09744 | 4.03465 | 15014 ft | 306 kts | 315° |
| 2026-04-29 13:28 | 51.11336 | 4.01282 | 14702 ft | 299 kts | 327° |
| 2026-04-29 13:29 | 51.13012 | 3.99337 | 14362 ft | 298 kts | 327° |
| 2026-04-29 13:29 | 51.14670 | 3.97432 | 14021 ft | 298 kts | 327° |
| 2026-04-29 13:29 | 51.16363 | 3.95467 | 13675 ft | 297 kts | 327° |
| 2026-04-29 13:29 | 51.18003 | 3.93535 | 13348 ft | 297 kts | 327° |
| 2026-04-29 13:30 | 51.19655 | 3.91578 | 13028 ft | 295 kts | 327° |
| 2026-04-29 13:30 | 51.21292 | 3.89633 | 12744 ft | 293 kts | 327° |
| 2026-04-29 13:30 | 51.22949 | 3.87781 | 12456 ft | 288 kts | 336° |
| 2026-04-29 13:30 | 51.24830 | 3.86903 | 12137 ft | 280 kts | 358° |
| 2026-04-29 13:31 | 51.26763 | 3.86795 | 11824 ft | 277 kts | 3° |
| 2026-04-29 13:31 | 51.28687 | 3.86782 | 11502 ft | 276 kts | 4° |
| 2026-04-29 13:31 | 51.30602 | 3.86775 | 11161 ft | 276 kts | 3° |
| 2026-04-29 13:31 | 51.32520 | 3.86752 | 10848 ft | 275 kts | 3° |
| 2026-04-29 13:32 | 51.34436 | 3.86717 | 10526 ft | 276 kts | 4° |
| 2026-04-29 13:32 | 51.36354 | 3.86679 | 10210 ft | 275 kts | 4° |
| 2026-04-29 13:32 | 51.38262 | 3.86633 | 9897 ft | 274 kts | 4° |
| 2026-04-29 13:32 | 51.40164 | 3.86585 | 9588 ft | 273 kts | 4° |
| 2026-04-29 13:33 | 51.42029 | 3.86815 | 9243 ft | 265 kts | 23° |
| 2026-04-29 13:33 | 51.43682 | 3.87983 | 9020 ft | 258 kts | 30° |
| 2026-04-29 13:33 | 51.45299 | 3.89229 | 8690 ft | 258 kts | 30° |
| 2026-04-29 13:33 | 51.46910 | 3.90472 | 8383 ft | 257 kts | 30° |
| 2026-04-29 13:34 | 51.48517 | 3.91713 | 8082 ft | 256 kts | 30° |
| 2026-04-29 13:34 | 51.50119 | 3.92948 | 7774 ft | 255 kts | 30° |
| 2026-04-29 13:34 | 51.51717 | 3.94177 | 7469 ft | 254 kts | 30° |
| 2026-04-29 13:34 | 51.53312 | 3.95402 | 7153 ft | 253 kts | 30° |
| 2026-04-29 13:35 | 51.54899 | 3.96627 | 6872 ft | 252 kts | 30° |
| 2026-04-29 13:35 | 51.56478 | 3.97839 | 6569 ft | 251 kts | 30° |
| 2026-04-29 13:35 | 51.58050 | 3.99046 | 6271 ft | 250 kts | 30° |
| 2026-04-29 13:35 | 51.59615 | 4.00252 | 5978 ft | 249 kts | 30° |
| 2026-04-29 13:36 | 51.61174 | 4.01453 | 5681 ft | 247 kts | 30° |
| 2026-04-29 13:36 | 51.62722 | 4.02644 | 5398 ft | 246 kts | 30° |
| 2026-04-29 13:36 | 51.64269 | 4.03830 | 5018 ft | 248 kts | 30° |
| 2026-04-29 13:36 | 51.65852 | 4.05054 | 4571 ft | 254 kts | 30° |
| 2026-04-29 13:37 | 51.67451 | 4.06288 | 4274 ft | 254 kts | 30° |
| 2026-04-29 13:37 | 51.69018 | 4.07489 | 4133 ft | 245 kts | 30° |
| 2026-04-29 13:37 | 51.70529 | 4.08652 | 4001 ft | 236 kts | 30° |
| 2026-04-29 13:37 | 51.71985 | 4.09778 | 3916 ft | 228 kts | 30° |
| 2026-04-29 13:38 | 51.73377 | 4.10855 | 3828 ft | 221 kts | 30° |
| 2026-04-29 13:38 | 51.74755 | 4.11924 | 3729 ft | 214 kts | 31° |
| 2026-04-29 13:38 | 51.76073 | 4.12944 | 3638 ft | 206 kts | 31° |
| 2026-04-29 13:38 | 51.77350 | 4.13932 | 3541 ft | 201 kts | 31° |
| 2026-04-29 13:39 | 51.78612 | 4.14914 | 3350 ft | 201 kts | 31° |
| 2026-04-29 13:39 | 51.79871 | 4.15896 | 3118 ft | 200 kts | 31° |
| 2026-04-29 13:39 | 51.81124 | 4.16873 | 2895 ft | 200 kts | 31° |
| 2026-04-29 13:39 | 51.82375 | 4.17844 | 2706 ft | 199 kts | 31° |
| 2026-04-29 13:40 | 51.83613 | 4.18808 | 2462 ft | 201 kts | 31° |
| 2026-04-29 13:40 | 51.84879 | 4.19796 | 2256 ft | 204 kts | 30° |
| 2026-04-29 13:40 | 51.86146 | 4.20832 | 2058 ft | 202 kts | 35° |
| 2026-04-29 13:40 | 51.87094 | 4.22316 | 2006 ft | 183 kts | 62° |
| 2026-04-29 13:41 | 51.87707 | 4.24024 | 1983 ft | 170 kts | 59° |
| 2026-04-29 13:41 | 51.88356 | 4.25605 | 2001 ft | 168 kts | 59° |
| 2026-04-29 13:41 | 51.88986 | 4.27169 | 2008 ft | 165 kts | 60° |
| 2026-04-29 13:41 | 51.89607 | 4.28731 | 2002 ft | 165 kts | 59° |
| 2026-04-29 13:42 | 51.90218 | 4.30266 | 1817 ft | 155 kts | 60° |
| 2026-04-29 13:42 | 51.90776 | 4.31675 | 1617 ft | 144 kts | 60° |
| 2026-04-29 13:42 | 51.91287 | 4.32960 | 1454 ft | 130 kts | 60° |
| 2026-04-29 13:42 | 51.91751 | 4.34127 | 1290 ft | 122 kts | 60° |
| 2026-04-29 13:43 | 51.92207 | 4.35268 | 1134 ft | 119 kts | 59° |
| 2026-04-29 13:43 | 51.92649 | 4.36377 | 983 ft | 116 kts | 60° |
| 2026-04-29 13:43 | 51.93099 | 4.37481 | 798 ft | 120 kts | 60° |
| 2026-04-29 13:43 | 51.93552 | 4.38630 | 660 ft | 121 kts | 62° |
| 2026-04-29 13:44 | 51.94000 | 4.39775 | 499 ft | 120 kts | 59° |
| 2026-04-29 13:44 | 51.94451 | 4.40912 | 355 ft | 120 kts | 61° |
| 2026-04-29 13:44 | 51.94905 | 4.42045 | 164 ft | 120 kts | 60° |
| 2026-04-29 13:44 | 51.95353 | 4.43180 | 26 ft | 119 kts | 59° |
| 2026-04-29 13:45 | 51.95745 | 4.44164 | -1 ft | 77 kts | 57° |
| 2026-04-29 13:45 | 51.95913 | 4.44604 | -2 ft | 22 kts | 83° |
| 2026-04-29 13:45 | 51.95831 | 4.44755 | 1 ft | 17 kts | 157° |
| 2026-04-29 13:45 | 51.95746 | 4.44660 | 0 ft | 16 kts | 236° |
| 2026-04-29 13:46 | 51.95687 | 4.44510 | 0 ft | 15 kts | 237° |
| 2026-04-29 13:46 | 51.95630 | 4.44367 | 0 ft | 15 kts | 237° |
| 2026-04-29 13:46 | 51.95574 | 4.44229 | 1 ft | 14 kts | 237° |
| 2026-04-29 13:46 | 51.95522 | 4.44097 | 1 ft | 14 kts | 237° |
| 2026-04-29 13:47 | 51.95471 | 4.43971 | 0 ft | 13 kts | 237° |
| 2026-04-29 13:47 | 51.95422 | 4.43849 | 2 ft | 13 kts | 237° |
| 2026-04-29 13:47 | 51.95373 | 4.43731 | 0 ft | 12 kts | 237° |
| 2026-04-29 13:47 | 51.95327 | 4.43614 | 0 ft | 12 kts | 237° |
| 2026-04-29 13:48 | 51.95274 | 4.43511 | 0 ft | 12 kts | 201° |
| 2026-04-29 13:48 | 51.95200 | 4.43557 | 0 ft | 12 kts | 147° |
| 2026-04-29 13:48 | 51.95132 | 4.43624 | 0 ft | 11 kts | 167° |
| 2026-04-29 13:48 | 51.95080 | 4.43548 | 0 ft | 9 kts | 237° |
| 2026-04-29 13:49 | 51.95061 | 4.43500 | 1 ft | 6 kts | 238° |
| 2026-04-29 13:49 | 51.95074 | 4.43445 | 0 ft | 3 kts | 327° |
| 2026-04-29 13:49 | 51.95090 | 4.43428 | 0 ft | 2 kts | 327° |
| 2026-04-29 13:49 | 51.95092 | 4.43427 | 0 ft | 0 kts | 327° |